This is the latest recevied weather packets stored in our database for station/object OM8AKX-4. If no packets are shown the sender has not sent any weather packets the latest 10 day(s).
| Time | Temp. | Humidity | Pressure | Rain* | Wind** | Luminosity | Snow |
|---|---|---|---|---|---|---|---|
| 1777621316 | 3.89° C | 57% | 883.9 hPa | - | - | - | - |
| 1777620416 | 3.89° C | 54% | 883.9 hPa | - | - | - | - |
| 1777619517 | 3.89° C | 53% | 883.9 hPa | - | - | - | - |
| 1777618617 | 2.78° C | 53% | 883.8 hPa | - | - | - | - |
| 1777617717 | 2.22° C | 53% | 883.7 hPa | - | - | - | - |
| 1777616817 | 2.22° C | 52% | 883.6 hPa | - | - | - | - |
| 1777615917 | 1.67° C | 50% | 883.4 hPa | - | - | - | - |
| 1777615017 | 1.67° C | 49% | 883.4 hPa | - | - | - | - |
| 1777614117 | 1.67° C | 46% | 883.3 hPa | - | - | - | - |
| 1777613217 | 1.11° C | 42% | 883.4 hPa | - | - | - | - |
| 1777612317 | 0° C | 43% | 883.4 hPa | - | - | - | - |
| 1777611417 | 0.56° C | 41% | 883.4 hPa | - | - | - | - |
| 1777610517 | 1.67° C | 40% | 883.2 hPa | - | - | - | - |
| 1777609617 | 0.56° C | 40% | 883.2 hPa | - | - | - | - |
| 1777608717 | 2.22° C | 38% | 883.1 hPa | - | - | - | - |
| 1777607817 | 0.56° C | 40% | 883.1 hPa | - | - | - | - |
| 1777606916 | -0.56° C | 44% | 883.1 hPa | - | - | - | - |
| 1777606016 | -1.67° C | 46% | 883 hPa | - | - | - | - |
| 1777605116 | -1.67° C | 46% | 883.2 hPa | - | - | - | - |
| 1777604216 | -1.67° C | 46% | 883.2 hPa | - | - | - | - |
| 1777603316 | -1.67° C | 47% | 883.3 hPa | - | - | - | - |
| 1777602416 | -2.22° C | 47% | 883.2 hPa | - | - | - | - |
| 1777601516 | -2.22° C | 47% | 883.2 hPa | - | - | - | - |
| 1777600616 | -1.67° C | 47% | 883.2 hPa | - | - | - | - |
| 1777599716 | -1.67° C | 47% | 883.4 hPa | - | - | - | - |
* Rain since midnight (hover to see other rain measurements)
** Current wind speed in m/s (hover to see current wind gust speed)